CheckWX is a tool to help pilots better visualize weather data.  It is not intended as a substitute for an official pre-flight weather briefing.

16:54:32 UTC

SBKG TAF
Presidente João Suassuna Airport
Campina Grande, Brazil
TAF SBKG 181000Z 1812/1824 14004KT 8000 BKN012 TN22/1812Z TX25/1816Z PROB30 1812/1815 5000 RA BKN010 BECMG 1817/1819 08015KT 9999 SCT025 BECMG 1821/1823 14010KT SCT017 RMK PEN

Jun-18@
12:00 UTC

Jun-18 @ 12:00 UTC

Jun-18@
17:00 UTC

Jun-18 @ 17:00 UTC

TAF SBKG 181000Z 1812/1824 14004KT 8000 BKN012 TN22/1812Z TX25/1816Z
Wind
  • 140° at 4 KTS
Cloud Levels
  • Broken at 1,200' AGL

Jun-18@
12:00 UTC

Jun-18 @ 12:00 UTC

Jun-18@
15:00 UTC

Jun-18 @ 15:00 UTC

PROB30 1812/1815 5000 RA BKN010

Expired

Conditions
Rain
Cloud Levels
  • Broken at 1,000' AGL

Jun-18@
17:00 UTC

Jun-18 @ 17:00 UTC

Jun-18@
21:00 UTC

Jun-18 @ 21:00 UTC

BECMG 1817/1819 08015KT 9999 SCT025

Becoming

Becoming Conditions expected by Tue, Jun 18, 2019 @ 19:00 UTC

Wind
  • 080° at 15 KTS
Cloud Levels
  • Scattered at 2,500' AGL

Jun-18@
21:00 UTC

Jun-18 @ 21:00 UTC

Jun-19@
00:00 UTC

Jun-19 @ 00:00 UTC

BECMG 1821/1823 14010KT SCT017 RMK PEN

Becoming

Becoming Conditions expected by Tue, Jun 18, 2019 @ 23:00 UTC

Wind
  • 140° at 10 KTS
Cloud Levels
  • Scattered at 1,700' AGL